Time;durP1;ratioP1;P1;durP2;ratioP2;P2;SDS_P1;SDS_P2;PMS_P1;PMS_P2;Temp;Humidity;BMP_temperature;BMP_pressure;BME280_temperature;BME280_humidity;BME280_pressure;Samples;Min_cycle;Max_cycle;Signal;HPM_P1;HPM_P2
2022/04/22 00:00:19;;;;;;;11.83;8.90;;;;;;;12.28;53.64;100375.91;690316;28;1037;-80
2022/04/22 00:00:40;;;;;;;12.60;8.80;;;;;;;12.29;53.55;100381.13;687754;28;1149;-81
2022/04/22 00:01:00;;;;;;;12.38;8.60;;;;;;;12.30;53.55;100379.41;687895;28;1745;-79
2022/04/22 00:01:21;;;;;;;14.00;9.10;;;;;;;12.26;53.50;100362.78;687934;28;1118;-80
2022/04/22 00:01:42;;;;;;;13.00;8.83;;;;;;;12.24;53.66;100363.63;692554;28;1329;-80
2022/04/22 00:02:03;;;;;;;12.48;8.80;;;;;;;12.26;53.80;100368.03;685353;28;1053;-80
2022/04/22 00:02:23;;;;;;;10.45;8.20;;;;;;;12.26;53.46;100359.28;687932;28;1481;-79
2022/04/22 00:02:44;;;;;;;10.57;8.30;;;;;;;12.33;53.66;100375.09;690484;28;1397;-80
2022/04/22 00:03:06;;;;;;;10.45;8.20;;;;;;;12.34;53.29;100370.72;693350;28;1008;-80
2022/04/22 00:03:27;;;;;;;10.35;8.23;;;;;;;12.32;53.45;100364.59;687795;28;1232;-79
2022/04/22 00:03:48;;;;;;;10.70;8.52;;;;;;;12.33;53.36;100359.41;687415;28;1562;-81
2022/04/22 00:04:09;;;;;;;11.48;8.60;;;;;;;12.28;53.40;100355.81;690385;28;1470;-80
2022/04/22 00:04:29;;;;;;;12.80;9.25;;;;;;;12.33;53.08;100368.97;690583;28;1152;-81
2022/04/22 00:04:50;;;;;;;13.32;9.30;;;;;;;12.27;53.31;100356.69;687745;28;1345;-80
2022/04/22 00:05:10;;;;;;;13.27;9.57;;;;;;;12.40;53.56;100369.97;687948;28;1173;-81
2022/04/22 00:05:31;;;;;;;12.82;9.30;;;;;;;12.39;53.43;100370.78;687944;28;1209;-80
2022/04/22 00:05:51;;;;;;;11.68;9.15;;;;;;;12.36;53.34;100355.97;686930;28;1446;-81
2022/04/22 00:06:13;;;;;;;13.20;9.00;;;;;;;12.33;53.29;100348.94;687813;28;1038;-81
2022/04/22 00:06:33;;;;;;;13.43;8.63;;;;;;;12.34;53.51;100358.53;687718;28;1140;-80
2022/04/22 00:06:54;;;;;;;14.50;9.02;;;;;;;12.37;53.12;100356.81;685116;28;1167;-80
2022/04/22 00:07:14;;;;;;;12.90;9.02;;;;;;;12.42;53.24;100370.84;685275;28;1109;-80
2022/04/22 00:07:35;;;;;;;11.93;9.00;;;;;;;12.38;53.25;100366.41;687961;28;1064;-80
2022/04/22 00:07:56;;;;;;;11.98;8.52;;;;;;;12.44;53.30;100371.75;690636;28;1098;-81
2022/04/22 00:08:16;;;;;;;12.00;8.57;;;;;;;12.40;53.20;100364.72;687815;28;1225;-80
2022/04/22 00:08:37;;;;;;;13.68;8.55;;;;;;;12.37;53.24;100351.59;685107;28;1341;-79
2022/04/22 00:08:57;;;;;;;12.98;8.73;;;;;;;12.43;53.36;100368.25;687282;28;1565;-80
2022/04/22 00:09:18;;;;;;;12.13;8.50;;;;;;;12.38;53.09;100355.94;684000;28;1220;-81
2022/04/22 00:09:38;;;;;;;10.73;8.30;;;;;;;12.46;53.20;100360.44;686999;28;1261;-80
2022/04/22 00:09:59;;;;;;;10.57;8.17;;;;;;;12.39;53.28;100357.72;690273;28;1230;-80
2022/04/22 00:10:20;;;;;;;10.82;8.20;;;;;;;12.43;53.07;100355.16;690492;28;1380;-80
2022/04/22 00:11:29;;;;;;;10.10;7.97;;;;;;;12.50;53.18;100371.84;693144;28;1151;-80
2022/04/22 00:11:30;;;;;;;10.90;8.25;;;;;;;12.47;53.28;100367.44;687667;28;1147;-80
2022/04/22 00:11:50;;;;;;;12.65;8.60;;;;;;;12.40;53.27;100341.19;687688;28;1174;-81
2022/04/22 00:12:11;;;;;;;13.82;9.07;;;;;;;12.47;53.16;100356.06;684921;28;1482;-80
2022/04/22 00:12:31;;;;;;;14.40;9.10;;;;;;;12.44;53.10;100350.81;682502;28;1109;-80
2022/04/22 00:12:52;;;;;;;12.98;9.20;;;;;;;12.40;53.30;100349.88;689302;28;1203;-80
2022/04/22 00:13:13;;;;;;;12.20;8.80;;;;;;;12.41;53.33;100361.25;690501;28;1165;-80
2022/04/22 00:13:33;;;;;;;13.00;9.00;;;;;;;12.37;53.17;100348.97;685336;28;1059;-80
2022/04/22 00:13:55;;;;;;;13.18;8.98;;;;;;;12.43;53.27;100354.28;690807;28;1163;-80
2022/04/22 00:14:16;;;;;;;12.30;9.40;;;;;;;12.55;53.34;100367.53;690318;28;1340;-80
2022/04/22 00:14:37;;;;;;;12.43;9.40;;;;;;;12.51;52.83;100357.00;693322;28;905;-80
2022/04/22 00:14:57;;;;;;;12.07;9.30;;;;;;;12.53;53.09;100361.41;692334;28;1264;-78
2022/04/22 00:15:20;;;;;;;10.73;8.60;;;;;;;12.46;53.19;100349.09;691065;28;1460;-79
2022/04/22 00:16:06;;;;;;;10.05;8.02;;;;;;;12.56;53.13;100366.69;692857;28;1122;-81
2022/04/22 00:16:45;;;;;;;10.85;8.40;;;;;;;12.55;53.16;100364.03;687842;28;808;-80
2022/04/22 00:17:06;;;;;;;13.00;8.20;;;;;;;12.51;52.93;100362.22;685368;28;1550;-81
2022/04/22 00:17:26;;;;;;;13.15;8.60;;;;;;;12.55;53.12;100361.44;683020;28;1198;-80
2022/04/22 00:17:47;;;;;;;12.37;8.70;;;;;;;12.46;52.84;100349.09;683299;28;1091;-80
2022/04/22 00:18:07;;;;;;;11.60;9.05;;;;;;;12.49;52.87;100349.16;688746;28;1123;-80
2022/04/22 00:18:30;;;;;;;11.25;8.90;;;;;;;12.50;53.15;100355.25;687628;28;1907;-80
2022/04/22 00:18:51;;;;;;;11.30;8.95;;;;;;;12.46;53.23;100349.09;687750;28;1000;-80
2022/04/22 00:19:12;;;;;;;12.18;9.02;;;;;;;12.47;52.86;100351.72;682469;28;1270;-81
2022/04/22 00:19:33;;;;;;;11.53;8.87;;;;;;;12.46;53.07;100357.84;684296;28;1204;-80
2022/04/22 00:19:53;;;;;;;12.60;8.82;;;;;;;12.57;52.96;100362.31;692027;28;1148;-80
2022/04/22 00:20:14;;;;;;;13.17;8.70;;;;;;;12.50;52.65;100350.91;690282;28;1129;-80
2022/04/22 00:20:34;;;;;;;14.23;8.60;;;;;;;12.48;53.08;100348.25;687788;28;1353;-79
2022/04/22 00:20:55;;;;;;;13.60;8.50;;;;;;;12.49;52.89;100343.91;687720;28;1316;-80
2022/04/22 00:21:15;;;;;;;12.33;8.53;;;;;;;12.55;52.96;100359.66;687716;28;1024;-80
2022/04/22 00:21:36;;;;;;;11.15;8.73;;;;;;;12.51;53.08;100351.75;685136;28;1310;-80
2022/04/22 00:21:57;;;;;;;11.15;8.70;;;;;;;12.48;53.05;100347.41;684368;28;1308;-80
2022/04/22 00:22:17;;;;;;;12.17;8.63;;;;;;;12.48;53.05;100350.00;684910;28;1186;-79
2022/04/22 00:22:40;;;;;;;15.15;9.00;;;;;;;12.47;53.17;100350.84;682335;28;1103;-80
2022/04/22 00:23:01;;;;;;;14.20;9.13;;;;;;;12.53;52.71;100358.78;687752;28;1720;-80
2022/04/22 00:23:22;;;;;;;14.45;9.27;;;;;;;12.51;52.98;100354.38;687839;28;1067;-80
2022/04/22 00:23:43;;;;;;;12.90;8.95;;;;;;;12.51;52.97;100349.16;688565;28;1611;-80
2022/04/22 00:24:03;;;;;;;13.67;8.60;;;;;;;12.51;53.15;100360.50;690021;28;1713;-80
2022/04/22 00:24:24;;;;;;;12.98;8.60;;;;;;;12.45;53.07;100343.00;690470;28;1196;-79
2022/04/22 00:24:45;;;;;;;11.93;8.45;;;;;;;12.47;53.18;100340.38;692827;28;1074;-80
2022/04/22 00:25:08;;;;;;;10.73;8.40;;;;;;;12.50;53.19;100352.63;695821;28;1224;-80
2022/04/22 00:25:29;;;;;;;10.30;7.80;;;;;;;12.60;53.04;100365.00;693024;28;1270;-79
2022/04/22 00:25:49;;;;;;;10.90;8.27;;;;;;;12.56;52.91;100353.59;691586;28;1440;-80
2022/04/22 00:26:10;;;;;;;12.13;8.70;;;;;;;12.55;52.87;100359.66;690408;28;1142;-79
2022/04/22 00:26:31;;;;;;;11.95;8.98;;;;;;;12.51;52.87;100347.41;687866;28;840;-80
2022/04/22 00:26:52;;;;;;;11.70;8.90;;;;;;;12.55;52.83;100354.44;690710;28;1614;-80
2022/04/22 00:27:12;;;;;;;11.38;8.73;;;;;;;12.54;52.87;100347.44;693177;28;1307;-80
2022/04/22 00:27:33;;;;;;;11.15;8.68;;;;;;;12.53;53.08;100350.94;693128;28;1094;-80
2022/04/22 00:27:54;;;;;;;11.03;8.80;;;;;;;12.57;53.17;100362.31;697639;28;1071;-81
2022/04/22 00:28:14;;;;;;;10.40;8.90;;;;;;;12.59;52.96;100356.25;693164;28;1295;-80
2022/04/22 00:28:35;;;;;;;11.60;8.90;;;;;;;12.60;52.92;100360.63;688729;28;1054;-80
2022/04/22 00:28:56;;;;;;;12.10;9.07;;;;;;;12.52;53.19;100345.69;690400;28;1201;-80
2022/04/22 00:29:16;;;;;;;12.30;9.10;;;;;;;12.51;52.94;100347.41;690312;28;1401;-80
2022/04/22 00:29:37;;;;;;;11.23;9.10;;;;;;;12.59;52.75;100356.25;689995;28;1464;-79
2022/04/22 00:29:58;;;;;;;11.18;8.77;;;;;;;12.60;52.50;100357.16;687612;28;1084;-80
2022/04/22 00:30:19;;;;;;;12.23;8.97;;;;;;;12.67;52.83;100364.19;684933;28;1267;-81
2022/04/22 00:30:39;;;;;;;12.18;8.98;;;;;;;12.58;52.61;100349.25;687702;28;1257;-79
2022/04/22 00:31:00;;;;;;;12.37;9.20;;;;;;;12.53;52.99;100343.06;689971;28;1448;-79
2022/04/22 00:31:21;;;;;;;10.70;8.63;;;;;;;12.57;52.79;100341.38;690428;28;1183;-80
2022/04/22 00:31:42;;;;;;;10.57;8.38;;;;;;;12.52;52.95;100341.31;687560;28;1078;-80
2022/04/22 00:32:02;;;;;;;10.30;8.27;;;;;;;12.56;52.94;100350.09;687793;28;1008;-80
2022/04/22 00:32:23;;;;;;;10.73;8.40;;;;;;;12.54;52.60;100344.84;687652;28;1886;-80
2022/04/22 00:32:43;;;;;;;13.23;8.80;;;;;;;12.64;52.30;100352.81;690318;28;1513;-80
2022/04/22 00:33:05;;;;;;;15.53;9.67;;;;;;;12.61;52.48;100351.91;685208;28;1273;-80
2022/04/22 00:33:26;;;;;;;16.08;10.02;;;;;;;12.60;52.93;100354.53;685116;28;859;-80
2022/04/22 00:33:47;;;;;;;13.52;10.00;;;;;;;12.58;52.65;100344.03;685779;28;1099;-81
2022/04/22 00:34:08;;;;;;;13.88;9.30;;;;;;;12.66;52.50;100353.72;688192;28;1084;-80
2022/04/22 00:34:28;;;;;;;13.70;9.10;;;;;;;12.60;52.55;100339.69;691556;28;827;-80
2022/04/22 00:34:49;;;;;;;14.00;8.90;;;;;;;12.66;52.44;100346.72;690896;28;1097;-81
2022/04/22 00:35:09;;;;;;;11.85;8.88;;;;;;;12.69;52.41;100359.88;685877;28;1421;-80
2022/04/22 00:35:30;;;;;;;12.02;8.85;;;;;;;12.68;52.34;100350.25;685014;28;1198;-80
2022/04/22 00:35:50;;;;;;;13.03;9.30;;;;;;;12.60;52.46;100336.19;689631;28;1168;-81
2022/04/22 00:36:11;;;;;;;12.48;8.93;;;;;;;12.58;52.58;100341.41;695956;28;949;-79
2022/04/22 00:36:32;;;;;;;14.30;8.97;;;;;;;12.52;52.81;100333.47;696035;28;760;-80
2022/04/22 00:36:54;;;;;;;12.75;8.50;;;;;;;12.58;52.68;100341.41;690587;28;1272;-80
2022/04/22 00:37:14;;;;;;;13.10;8.65;;;;;;;12.66;52.64;100348.47;690359;28;1378;-80
2022/04/22 00:37:35;;;;;;;11.43;8.60;;;;;;;12.67;52.50;100343.25;687724;28;1284;-81
2022/04/22 00:37:56;;;;;;;12.20;8.48;;;;;;;12.68;52.74;100349.38;689760;28;1138;-80
2022/04/22 00:38:16;;;;;;;11.80;8.60;;;;;;;12.56;52.84;100337.91;689718;28;2548;-80
2022/04/22 00:38:37;;;;;;;12.10;8.73;;;;;;;12.59;52.69;100343.16;685235;28;1300;-79
2022/04/22 00:38:58;;;;;;;11.93;8.77;;;;;;;12.59;52.68;100335.31;687990;28;1328;-80
2022/04/22 00:39:18;;;;;;;12.10;8.80;;;;;;;12.55;52.88;100332.63;693113;28;1187;-80
2022/04/22 00:39:39;;;;;;;11.95;9.00;;;;;;;12.57;52.92;100336.16;690883;28;1390;-80
2022/04/22 00:40:00;;;;;;;11.55;9.07;;;;;;;12.59;52.77;100340.53;684787;28;1227;-80
2022/04/22 00:40:20;;;;;;;11.23;9.23;;;;;;;12.61;53.01;100341.44;685078;28;1307;-80
2022/04/22 00:40:42;;;;;;;13.73;9.00;;;;;;;12.61;52.76;100340.56;685286;28;1374;-80
2022/04/22 00:41:02;;;;;;;14.48;9.10;;;;;;;12.57;52.71;100341.38;685205;28;1341;-80
2022/04/22 00:41:23;;;;;;;14.83;8.70;;;;;;;12.54;53.07;100336.97;685184;28;827;-80
2022/04/22 00:41:43;;;;;;;12.10;8.73;;;;;;;12.55;52.82;100333.50;687237;28;1340;-79
2022/04/22 00:42:10;;;;;;;11.80;8.50;;;;;;;12.54;52.80;100336.97;690463;28;1165;-80
2022/04/22 00:42:31;;;;;;;10.65;8.00;;;;;;;12.61;52.91;100343.19;687675;28;933;-80
2022/04/22 00:42:52;;;;;;;12.38;8.20;;;;;;;12.56;52.96;100345.75;691808;28;1087;-80
2022/04/22 00:43:21;;;;;;;13.25;8.70;;;;;;;12.45;53.21;100331.63;689132;28;1329;-81
2022/04/22 00:43:50;;;;;;;13.88;9.18;;;;;;;12.55;53.19;100346.59;684989;28;1085;-80
2022/04/22 00:44:11;;;;;;;11.25;8.80;;;;;;;12.43;52.69;100322.88;690452;28;1233;-80
2022/04/22 00:44:31;;;;;;;12.52;8.75;;;;;;;12.41;53.06;100324.63;685097;28;1230;-80
2022/04/22 00:44:52;;;;;;;14.90;9.20;;;;;;;12.45;53.06;100326.41;688957;28;1418;-80
2022/04/22 00:45:12;;;;;;;15.40;9.50;;;;;;;12.51;53.00;100342.19;687833;28;958;-80
2022/04/22 00:45:33;;;;;;;14.57;9.75;;;;;;;12.50;53.16;100339.53;687632;28;1170;-81
2022/04/22 00:45:55;;;;;;;12.93;9.43;;;;;;;12.44;52.94;100327.25;690409;28;1193;-80
2022/04/22 00:46:16;;;;;;;12.18;9.02;;;;;;;12.46;53.03;100333.38;687628;28;1384;-80
2022/04/22 00:46:37;;;;;;;11.55;8.70;;;;;;;12.43;53.06;100334.22;684816;28;1112;-80
2022/04/22 00:46:57;;;;;;;11.10;8.43;;;;;;;12.40;52.97;100328.09;687037;28;1161;-80
2022/04/22 00:47:18;;;;;;;11.68;8.60;;;;;;;12.43;52.88;100334.22;690418;28;1295;-80
2022/04/22 00:48:16;;;;;;;11.95;8.98;;;;;;;12.49;52.93;100343.91;693033;28;1290;-80
2022/04/22 00:48:37;;;;;;;13.25;9.20;;;;;;;12.43;53.20;100333.34;684878;28;1921;-79
2022/04/22 00:48:57;;;;;;;12.50;9.13;;;;;;;12.50;53.03;100337.81;687689;28;1521;-82
2022/04/22 00:49:18;;;;;;;12.57;9.03;;;;;;;12.47;52.94;100337.75;684973;28;885;-80
2022/04/22 00:49:39;;;;;;;12.45;9.05;;;;;;;12.48;52.69;100343.03;685271;28;1289;-81
2022/04/22 00:49:59;;;;;;;11.85;9.27;;;;;;;12.41;52.97;100330.72;690182;28;1118;-79
2022/04/22 00:50:20;;;;;;;11.57;8.97;;;;;;;12.47;52.98;100337.75;687754;28;1131;-81
2022/04/22 00:50:41;;;;;;;11.63;8.65;;;;;;;12.38;53.40;100332.41;690348;28;1178;-81
2022/04/22 00:51:06;;;;;;;12.60;8.60;;;;;;;12.38;53.07;100335.03;693031;28;1403;-81
2022/04/22 00:51:27;;;;;;;13.25;8.90;;;;;;;12.34;52.93;100335.00;687960;28;876;-82
2022/04/22 00:51:47;;;;;;;13.70;9.10;;;;;;;12.37;53.11;100339.41;688350;28;1314;-81
2022/04/22 00:52:09;;;;;;;13.82;9.38;;;;;;;12.32;53.05;100331.47;685023;28;1360;-82
2022/04/22 00:52:30;;;;;;;13.18;9.20;;;;;;;12.23;53.37;100336.56;682467;28;1259;-82
2022/04/22 00:52:50;;;;;;;12.90;9.10;;;;;;;12.19;53.29;100319.94;686797;28;1284;-81
2022/04/22 00:53:12;;;;;;;13.38;9.10;;;;;;;12.20;53.47;100323.44;687787;28;1236;-80
2022/04/22 00:53:36;;;;;;;13.50;9.30;;;;;;;12.26;53.47;100336.63;687798;28;1032;-81
2022/04/22 00:53:57;;;;;;;12.32;9.13;;;;;;;12.19;53.30;100335.63;689424;28;1616;-81
2022/04/22 00:54:18;;;;;;;11.70;8.70;;;;;;;12.17;53.71;100331.28;690357;28;1023;-81
2022/04/22 00:54:38;;;;;;;13.40;8.90;;;;;;;12.13;53.59;100332.06;688157;28;1140;-80
2022/04/22 00:54:59;;;;;;;15.18;9.20;;;;;;;12.03;53.76;100324.09;687764;28;1608;-81
2022/04/22 00:55:20;;;;;;;14.77;9.30;;;;;;;12.04;54.22;100324.97;687588;28;1344;-81
2022/04/22 00:55:43;;;;;;;12.73;9.30;;;;;;;12.02;53.81;100330.19;685066;28;989;-81
2022/04/22 00:56:06;;;;;;;11.70;9.20;;;;;;;11.91;54.01;100316.94;688553;28;1548;-81
2022/04/22 00:56:26;;;;;;;12.05;9.23;;;;;;;11.99;54.17;100337.97;687750;28;1150;-81
2022/04/22 00:56:50;;;;;;;12.50;9.47;;;;;;;11.98;54.16;100336.22;685230;28;1169;-81
2022/04/22 00:57:10;;;;;;;13.43;9.50;;;;;;;11.92;54.14;100323.03;685109;28;970;-81
2022/04/22 00:57:32;;;;;;;13.03;9.30;;;;;;;11.95;54.42;100325.72;687763;28;1098;-81
2022/04/22 00:57:53;;;;;;;13.65;9.00;;;;;;;11.82;54.35;100319.41;685703;28;1340;-81
2022/04/22 00:58:14;;;;;;;13.90;9.23;;;;;;;11.86;54.31;100321.22;684741;28;1971;-81
2022/04/22 00:58:36;;;;;;;15.90;9.70;;;;;;;11.85;54.06;100321.22;684964;28;1145;-81
2022/04/22 00:58:57;;;;;;;15.43;9.80;;;;;;;11.78;54.20;100314.97;689726;28;1193;-81
2022/04/22 00:59:18;;;;;;;16.02;9.75;;;;;;;11.79;54.14;100325.47;684699;28;1092;-81
2022/04/22 00:59:40;;;;;;;14.97;9.33;;;;;;;11.78;54.66;100330.66;684362;28;1245;-81
2022/04/22 01:00:03;;;;;;;14.35;9.57;;;;;;;11.72;54.48;100318.38;684781;28;1260;-81
2022/04/22 01:00:26;;;;;;;13.15;9.57;;;;;;;11.71;54.77;100319.25;687573;28;1360;-81
2022/04/22 01:00:46;;;;;;;12.32;9.70;;;;;;;11.70;54.79;100320.09;690281;28;1137;-81
2022/04/22 01:01:08;;;;;;;11.65;9.20;;;;;;;11.67;54.75;100320.03;685102;28;1283;-80
2022/04/22 01:01:30;;;;;;;11.57;8.60;;;;;;;11.70;54.78;100324.44;685556;28;1321;-81
2022/04/22 01:01:50;;;;;;;10.95;8.40;;;;;;;11.61;54.61;100312.94;689156;28;1206;-81
2022/04/22 01:02:14;;;;;;;11.48;8.65;;;;;;;11.65;54.86;100324.38;692982;28;1277;-81
2022/04/22 01:02:35;;;;;;;12.55;9.40;;;;;;;11.66;55.00;100323.50;686024;28;1691;-82
2022/04/22 01:02:55;;;;;;;13.47;9.80;;;;;;;11.63;54.99;100319.06;690376;28;1191;-80
2022/04/22 01:03:16;;;;;;;13.00;9.63;;;;;;;11.58;54.81;100306.78;690312;28;1221;-81
2022/04/22 01:03:36;;;;;;;13.03;9.90;;;;;;;11.60;54.80;100312.91;690319;28;1345;-81
2022/04/22 01:09:51;;;;;;;14.30;10.27;;;;;;;11.66;55.03;100318.28;685495;28;1114;-81
2022/04/22 01:10:13;;;;;;;14.90;10.17;;;;;;;11.65;54.68;100309.59;687731;28;982;-80
2022/04/22 01:10:33;;;;;;;14.10;9.77;;;;;;;11.64;55.03;100306.91;690293;28;1230;-81
2022/04/22 01:10:54;;;;;;;13.82;9.90;;;;;;;11.62;54.96;100306.00;690361;28;1032;-81
2022/04/22 01:11:15;;;;;;;13.00;9.60;;;;;;;11.67;55.06;100304.34;687085;28;1173;-81
2022/04/22 01:11:36;;;;;;;13.88;10.30;;;;;;;11.66;55.00;100310.44;690221;28;1619;-81
2022/04/22 01:11:57;;;;;;;15.70;10.40;;;;;;;11.67;54.81;100306.09;689476;28;1099;-81
2022/04/22 01:12:19;;;;;;;15.93;10.23;;;;;;;11.73;54.87;100309.69;689401;28;1126;-81
2022/04/22 01:12:39;;;;;;;15.98;9.73;;;;;;;11.66;55.03;100302.59;687611;28;1364;-81
2022/04/22 01:13:00;;;;;;;15.20;9.88;;;;;;;11.72;55.13;100300.09;690542;28;1471;-80
2022/04/22 01:13:21;;;;;;;14.77;10.00;;;;;;;11.67;55.05;100295.66;693204;28;1103;-81
2022/04/22 01:13:41;;;;;;;14.38;10.40;;;;;;;11.71;55.32;100305.28;693231;28;963;-81
2022/04/22 01:14:05;;;;;;;14.07;10.70;;;;;;;11.68;54.98;100300.88;690681;28;1517;-81
2022/04/22 01:14:26;;;;;;;14.43;10.60;;;;;;;11.69;54.70;100297.44;690585;28;873;-80
2022/04/22 01:14:47;;;;;;;14.85;10.13;;;;;;;11.81;54.84;100311.53;684554;28;1182;-81
2022/04/22 01:15:08;;;;;;;15.50;10.07;;;;;;;11.72;54.98;100301.81;684926;28;1722;-80
2022/04/22 01:15:30;;;;;;;15.30;10.38;;;;;;;11.84;54.92;100312.47;684646;28;1363;-81
2022/04/22 01:15:50;;;;;;;14.93;10.43;;;;;;;11.79;55.10;100312.41;690040;28;1535;-81
2022/04/22 01:16:11;;;;;;;14.07;10.38;;;;;;;11.70;54.87;100299.19;692761;28;1425;-80
2022/04/22 01:16:33;;;;;;;14.45;10.50;;;;;;;11.81;54.80;100316.78;689670;28;1082;-80
2022/04/22 01:16:55;;;;;;;14.30;10.60;;;;;;;11.72;54.98;100299.19;688946;28;1528;-81
2022/04/22 01:17:15;;;;;;;15.73;11.00;;;;;;;11.76;54.90;100301.91;688348;28;1365;-81
2022/04/22 01:17:37;;;;;;;14.73;10.40;;;;;;;11.79;54.95;100304.56;690174;28;1566;-81
2022/04/22 01:17:58;;;;;;;14.07;10.20;;;;;;;11.88;54.72;100313.41;687969;28;1635;-81
2022/04/22 01:18:18;;;;;;;13.77;10.05;;;;;;;11.87;54.55;100319.50;692707;28;1907;-80
2022/04/22 01:18:39;;;;;;;15.48;10.70;;;;;;;11.82;54.83;100308.06;687541;28;1093;-81
2022/04/22 01:19:00;;;;;;;16.63;10.68;;;;;;;11.85;54.66;100305.53;687535;28;1230;-81
2022/04/22 01:19:20;;;;;;;16.63;10.82;;;;;;;11.90;54.55;100316.91;684899;28;1064;-81
2022/04/22 01:19:41;;;;;;;15.90;10.30;;;;;;;11.87;54.82;100311.66;684364;28;1013;-82
2022/04/22 01:20:04;;;;;;;15.15;10.07;;;;;;;11.90;54.54;100311.69;687208;28;1163;-81
2022/04/22 01:20:24;;;;;;;15.82;10.40;;;;;;;11.87;54.75;100311.66;688757;28;1299;-81
2022/04/22 01:20:45;;;;;;;16.07;10.50;;;;;;;11.88;54.92;100308.16;687905;28;1490;-81
2022/04/22 01:21:05;;;;;;;15.50;10.70;;;;;;;11.85;54.91;100297.69;690404;28;1161;-81
2022/04/22 01:21:26;;;;;;;14.50;10.27;;;;;;;11.88;54.82;100298.59;687651;28;1069;-81
2022/04/22 01:21:46;;;;;;;15.07;10.33;;;;;;;11.90;54.81;100296.88;692789;28;1307;-81
2022/04/22 01:22:08;;;;;;;17.77;11.23;;;;;;;11.87;54.53;100295.97;690317;28;1306;-81
2022/04/22 01:22:28;;;;;;;17.42;11.10;;;;;;;11.90;54.72;100301.22;690329;28;1402;-81
2022/04/22 01:22:49;;;;;;;16.20;10.93;;;;;;;11.91;54.63;100309.09;688199;28;1216;-81
2022/04/22 01:23:10;;;;;;;15.03;10.93;;;;;;;11.89;54.54;100300.34;690421;28;948;-81
2022/04/22 01:23:33;;;;;;;15.52;11.15;;;;;;;11.89;54.60;100295.13;687703;28;1312;-81
2022/04/22 01:23:53;;;;;;;15.65;11.05;;;;;;;11.96;54.65;100309.16;691696;28;1099;-81
2022/04/22 01:24:14;;;;;;;15.48;10.88;;;;;;;11.89;54.69;100294.25;685175;28;1219;-81
2022/04/22 01:24:35;;;;;;;15.70;11.13;;;;;;;11.94;54.81;100308.28;684909;28;1184;-81
2022/04/22 01:25:01;;;;;;;16.65;11.43;;;;;;;11.88;54.55;100303.84;683929;28;1353;-81
2022/04/22 01:25:22;;;;;;;16.80;10.93;;;;;;;11.93;54.58;100301.28;688573;28;1122;-81
2022/04/22 01:25:43;;;;;;;16.45;10.55;;;;;;;12.01;54.71;100310.13;687578;28;1539;-81
2022/04/22 01:26:04;;;;;;;15.70;10.05;;;;;;;11.95;54.48;100302.19;690229;28;1187;-81
2022/04/22 01:26:25;;;;;;;14.30;10.00;;;;;;;11.91;54.66;100297.75;690341;28;1185;-81
2022/04/22 01:26:46;;;;;;;15.73;10.07;;;;;;;11.89;54.63;100292.50;687622;28;1150;-82
2022/04/22 01:27:07;;;;;;;15.98;10.02;;;;;;;11.93;54.70;100289.06;693044;28;1284;-81
2022/04/22 01:27:31;;;;;;;14.93;9.90;;;;;;;11.90;54.45;100294.28;690290;28;775;-80
2022/04/22 01:27:52;;;;;;;14.88;9.93;;;;;;;11.94;54.54;100297.81;689428;28;1586;-81
2022/04/22 01:28:13;;;;;;;16.60;10.30;;;;;;;11.94;54.35;100295.19;687652;28;1208;-81
2022/04/22 01:28:34;;;;;;;17.17;10.55;;;;;;;12.01;54.37;100310.13;684878;28;1171;-81
2022/04/22 01:28:55;;;;;;;16.30;10.60;;;;;;;12.00;54.59;100310.97;691675;28;1083;-80
2022/04/22 01:29:16;;;;;;;15.18;10.48;;;;;;;11.93;54.48;100296.06;693136;28;825;-81
2022/04/22 01:29:37;;;;;;;14.97;10.30;;;;;;;11.87;54.51;100281.13;689703;28;1169;-81
2022/04/22 01:30:00;;;;;;;15.90;10.60;;;;;;;11.87;54.68;100283.75;687547;28;1099;-81
2022/04/22 01:30:22;;;;;;;14.05;10.18;;;;;;;11.94;54.55;100297.81;689756;28;1270;-81
2022/04/22 01:30:43;;;;;;;14.90;10.40;;;;;;;12.00;54.67;100295.28;690355;28;981;-80
2022/04/22 01:31:04;;;;;;;15.98;10.70;;;;;;;11.93;55.05;100296.06;695828;28;1485;-80
2022/04/22 01:31:24;;;;;;;16.40;11.10;;;;;;;11.93;54.50;100293.44;693075;28;1262;-81
2022/04/22 01:31:45;;;;;;;17.90;11.50;;;;;;;12.00;54.74;100302.25;690088;28;1192;-81
2022/04/22 01:32:06;;;;;;;16.33;11.27;;;;;;;11.93;54.32;100290.81;690118;28;1288;-81
2022/04/22 01:32:27;;;;;;;15.38;10.93;;;;;;;11.93;54.71;100286.47;693124;28;1283;-81
2022/04/22 01:32:52;;;;;;;14.15;10.65;;;;;;;11.94;54.91;100297.81;692903;28;1109;-80
2022/04/22 01:33:12;;;;;;;15.13;10.98;;;;;;;11.89;54.44;100283.78;690298;28;1098;-80
2022/04/22 01:33:33;;;;;;;16.40;11.40;;;;;;;11.94;54.70;100303.03;687475;28;1203;-80
2022/04/22 01:33:54;;;;;;;16.50;11.57;;;;;;;11.97;54.73;100303.06;690437;28;1219;-81
2022/04/22 01:34:14;;;;;;;16.52;11.23;;;;;;;12.02;54.60;100300.53;693115;28;1142;-81
2022/04/22 01:34:35;;;;;;;16.77;11.10;;;;;;;11.94;54.77;100287.34;690829;28;1629;-81
2022/04/22 01:34:56;;;;;;;18.45;11.07;;;;;;;12.00;54.51;100299.63;692964;28;1273;-81
2022/04/22 01:35:17;;;;;;;18.45;11.60;;;;;;;11.99;54.78;100296.13;695100;28;1117;-81
2022/04/22 01:35:38;;;;;;;17.25;11.65;;;;;;;11.95;54.58;100286.50;693017;28;1592;-81
2022/04/22 01:35:59;;;;;;;16.17;11.70;;;;;;;11.99;54.46;100303.97;690418;28;1079;-81
2022/04/22 01:36:20;;;;;;;15.25;11.02;;;;;;;11.97;54.82;100296.97;687561;28;1266;-81
2022/04/22 01:36:40;;;;;;;14.85;10.80;;;;;;;11.92;54.63;100283.81;686027;28;1270;-81
2022/04/22 01:37:01;;;;;;;14.50;10.55;;;;;;;11.97;54.70;100292.63;687529;28;1283;-81
2022/04/22 01:37:22;;;;;;;17.47;11.03;;;;;;;11.95;54.51;100291.72;690259;28;1188;-81
2022/04/22 01:37:43;;;;;;;17.70;11.00;;;;;;;12.00;54.72;100302.25;690352;28;1350;-81
2022/04/22 01:38:04;;;;;;;18.58;11.32;;;;;;;11.91;54.71;100284.66;687638;28;1200;-81
2022/04/22 01:38:25;;;;;;;15.43;11.15;;;;;;;11.93;54.58;100296.06;687637;28;1980;-81
2022/04/22 01:38:45;;;;;;;15.30;10.90;;;;;;;11.87;54.80;100280.28;685008;28;1388;-81
2022/04/22 01:39:06;;;;;;;14.88;10.57;;;;;;;11.91;54.56;100287.28;688112;28;947;-81
2022/04/22 01:39:29;;;;;;;15.17;10.50;;;;;;;11.89;54.75;100283.78;687522;28;811;-80
2022/04/22 01:39:49;;;;;;;15.00;11.00;;;;;;;11.91;54.61;100288.19;690231;28;1142;-82
2022/04/22 01:40:11;;;;;;;15.75;11.45;;;;;;;11.93;54.71;100282.97;693828;28;1167;-81
2022/04/22 01:40:32;;;;;;;16.95;11.38;;;;;;;11.87;54.87;100280.28;695870;28;1361;-81
2022/04/22 01:40:54;;;;;;;19.50;11.60;;;;;;;11.99;54.92;100298.72;690451;28;1185;-80
2022/04/22 01:41:15;;;;;;;21.15;12.45;;;;;;;11.91;54.55;100284.66;682236;28;1406;-81
2022/04/22 01:41:35;;;;;;;19.23;11.98;;;;;;;11.96;54.81;100285.63;687565;28;1176;-82
2022/04/22 01:41:56;;;;;;;15.80;11.07;;;;;;;11.93;54.79;100280.38;689148;28;1177;-81
2022/04/22 01:42:18;;;;;;;14.27;10.25;;;;;;;11.95;54.60;100291.72;690404;28;1019;-81
2022/04/22 01:42:39;;;;;;;15.70;10.80;;;;;;;11.95;54.78;100290.81;690310;28;1146;-80
2022/04/22 01:43:00;;;;;;;16.85;10.73;;;;;;;11.89;54.79;100279.44;687555;28;1268;-81
2022/04/22 01:43:21;;;;;;;17.30;11.17;;;;;;;12.01;54.59;100298.78;683191;28;1420;-81
2022/04/22 01:43:42;;;;;;;17.08;10.90;;;;;;;11.85;54.66;100271.53;685058;28;941;-80
2022/04/22 01:44:03;;;;;;;18.00;11.00;;;;;;;11.95;54.64;100289.09;687402;28;1531;-81
2022/04/22 01:44:24;;;;;;;15.98;10.55;;;;;;;11.94;54.90;100284.72;687717;28;1199;-81
2022/04/22 01:44:46;;;;;;;16.02;10.88;;;;;;;12.02;54.78;100295.28;686966;28;970;-81
2022/04/22 01:45:07;;;;;;;15.70;11.15;;;;;;;11.96;54.77;100277.78;687525;28;1117;-81
2022/04/22 01:45:29;;;;;;;16.58;11.25;;;;;;;11.93;54.58;100275.13;682360;28;1239;-81
2022/04/22 01:45:52;;;;;;;16.25;10.82;;;;;;;12.00;54.52;100286.56;683709;28;1274;-81
2022/04/22 01:46:15;;;;;;;15.75;10.60;;;;;;;11.93;54.69;100282.97;689888;28;1496;-81
2022/04/22 01:46:36;;;;;;;15.40;10.50;;;;;;;11.96;54.55;100271.66;688108;28;1384;-81
2022/04/22 01:46:57;;;;;;;17.55;11.00;;;;;;;11.98;54.62;100285.66;691912;28;1534;-81